VATSIM Germany Forum

Zurück   VATSIM Germany Forum > Community > Events

Events Ankündigungen von Events, Checkouts, TV-Terminen, usw.

Antwort
 
LinkBack Themen-Optionen Ansicht
Alt 2018-05-23, 12:57   #451 (permalink)
 
Benutzerbild von Jan Doehring
 
Registriert seit: 2016-09-23
Ort: EDSA & ETSA
Beiträge: 368
Danke erteilt: 671
286 Danksagungen in 147 Beiträgen erhalten
Standard

Und auch heute Abend setzen wir uns wieder vor die Rechner und schmeißen Euroscope an. Auch wenn wir voraussichtlich nur in reduzierter Form online sein werden, soll euch das nicht daran hindern, pünktlich nach beispielsweise Münster abzufliegen !

Hier einmal das Wetter, welches ja im Vergleich zu den letzten Tagen noch langweilig ist :

variable Windrichtung mit 2 kt
Sichtweite 10 km oder mehr
gering bewölkt in 2800 ft
aufgelockert bewölkt in 24000 ft
Temperatur 22.0°C
Taupunkt 14.0°C
Luftfeuchtigkeit 60%
Luftdruck 1017 hPa

Heute Abend könnts jedoch lustig werden:
Code:
TAF EDDM 230500Z 2306/2412 25004KT CAVOK BECMG 2309/2311 03005KT PROB30 TEMPO 2316/2321 TSRA BKN030CB BECMG 2318/2320 VRB03KT PROB40 TEMPO 2400/2412 SHRA BKN035CB PROB30 TEMPO 2403/2412 4000 TSRA BKN030CB TEMPO 2403/2408 BKN008 TEMPO 2408/2410 BKN012
Man hört sich auf den vollen Frequenzen in und um Minga...
Die München Crew
__________________

Geändert von Jan Doehring (2018-05-23 um 13:03 Uhr)
Jan Doehring ist offline   Mit Zitat antworten
Alt 2018-06-06, 15:20   #452 (permalink)
 
Benutzerbild von Steffen Butenschön
 
Registriert seit: 2013-01-03
Ort: bei Berlin
Beiträge: 173
Danke erteilt: 414
457 Danksagungen in 130 Beiträgen erhalten
Standard

!München Mittwoch !

2 Pisten , mindestens 6 Controller und DU

In wenigen Stunden geht es los und wir freuen uns auf einen tollen Abend mit zahlreichen Piloten in und um München.
Im Koffer mit der Bekleidung darf ruhig etwas wetterfestes dabei sein

2018/06/06 12:20
EDDM 061220Z 07006KT 350V140 CAVOK 27/15 Q1012 NOSIG

2018/06/06 12:31
TAF EDDM 061100Z 0612/0718 07008KT CAVOK PROB30
TEMPO 0616/0620 23015G25KT TSRA BKN050CB
BECMG 0618/0620 VRB03KT PROB30
TEMPO 0715/0718 23015G25KT TSRA BKN050CB

Bei der Auswahl der Flugstrecke gibt es wieder viele Möglichkeiten. Aktuell im Angebot : Bremen, Dortmund und Münster.
Über die Landesgrenzen hinaus sind dann noch Dänemark, Österreich, Polen, Italien, Frankreich und England mit von der Partie!
Alternativ natürlich auch Platzrunden und kurze Flüge von z.B. Augsburg.

Also, egal wie - sei dabei.

Wir freuen uns auf Euch!

Eure München Crew
Steffen Butenschön ist offline   Mit Zitat antworten
Alt 2018-06-20, 17:01   #453 (permalink)
 
Benutzerbild von Steffen Butenschön
 
Registriert seit: 2013-01-03
Ort: bei Berlin
Beiträge: 173
Danke erteilt: 414
457 Danksagungen in 130 Beiträgen erhalten
Standard

Genau, es ist schon wieder Mittwoch - Juhu !

So startet in knapp 3 Stunden der München Mittwoch unter folgenden Wetterbedingungen:

2018/06/20 14:20
EDDM 201420Z 03006KT 310V080 CAVOK 27/13 Q1021 NOSIG

2018/06/20 12:27
TAF EDDM 201100Z 2012/2118 09008KT CAVOK
BECMG 2018/2020 VRB03KT
BECMG 2106/2108 26008KT
BECMG 2110/2112 27015G25KT PROB30
TEMPO 2115/2118 29020G35KT TSRA BKN040CB

Na, sieht doch gut aus!
Also ab in die Flieger - IFR oder VFR - jeder ist herzlich willkommen.
Apropos VFR, falls ein XPlane Pilot dieses Geschenk noch nicht gesehen hat ...
Mit euren Flügen unterstützt ihr heute übrigens Michael, der fleißig auf dem APP trainiert

Bis gleich !

Eure München Crew
Steffen Butenschön ist offline   Mit Zitat antworten
Alt 2018-06-27, 13:54   #454 (permalink)
 
Registriert seit: 2017-07-28
Ort: EDDM
Beiträge: 84
Danke erteilt: 285
144 Danksagungen in 55 Beiträgen erhalten
Standard

Nach dem NüMo am Montag ist Mittwochs immer MüMi.

Und nach dem Spiel ist vor dem Flug, also schaut doch heute Abend mal auf einen ILS-Approach in München vorbei.
Wetter wird eher meeeh im Laufe des Abends, aber man kann ja auch mal ein bisschen am Wetter drehen und per VFR vorbeischauen.

Die weiteren Aussichten:
EDDM 271128Z 2712/2818 01008KT 9999 SCT045 PROB30 TEMPO 2712/2716 02015G25KT TSRA BKN040CB BECMG 2717/2719 VRB03KT BECMG 2805/2807 01007KT TEMPO 2811/2817 RA BKN012

Bis später!
__________________
Michael Hoffman ist offline   Mit Zitat antworten
Danksagungen
Alt 2018-07-04, 13:52   #455 (permalink)
 
Benutzerbild von Steffen Butenschön
 
Registriert seit: 2013-01-03
Ort: bei Berlin
Beiträge: 173
Danke erteilt: 414
457 Danksagungen in 130 Beiträgen erhalten
Standard

München Mittwoch

Und schon ist endlich wieder Mittwoch.
Unser Erfolgskonzept " Controllen, Fliegen, Spaß haben - und das jeden Mittwoch! "
wurde nun erneut übernommen :

!Geile Zeiten!

Die neue Partyreihe in der Münchner Kultdisko Milchbar bietet vor allem eines:
Gute Laune all night long mit den besten deutschen Songs aller Musikrichtungen
und Jahrzehnte.
Tanzen, Spaß haben, eskalieren - und das jeden Mittwoch!

Also ein guter Vorschlag für eine Destination nach der Landung in München.

Das begleitende Wetter gestaltet sich folgendermaßen :

2018/07/04 11:20
EDDM 041120Z 28007KT 9999 -TSRA FEW042CB SCT110 24/15 Q1017 BECMG NSW

2018/07/04 12:27
TAF EDDM 041100Z 0412/0518 24007KT 9999 FEW040 PROB40
TEMPO 0412/0418 30015G25KT TSRA BKN030CB
BECMG 0419/0421 VRB03KT
BECMG 0510/0513 29006KT PROB40
TEMPO 0516/0518 32020G30KT 4000 TSRA BKN030CB


Wir freuen uns auf Euch!

Eure München Crew
Steffen Butenschön ist offline   Mit Zitat antworten
Alt 2018-07-11, 12:51   #456 (permalink)
 
Benutzerbild von Steffen Butenschön
 
Registriert seit: 2013-01-03
Ort: bei Berlin
Beiträge: 173
Danke erteilt: 414
457 Danksagungen in 130 Beiträgen erhalten
Standard

Und schon ist es wieder so weit !
Die Stationen sind gebucht und wir freuen uns auf den heutigen München Mittwoch mit euch !

Mit neuer Chefetage und mindestens so viel Elan wie eh und je begrüßt Euch das EDDM Team bei folgendem Wetter:

2018/07/11 10:20
EDDM 111020Z 33010KT 290V350 9999 SCT035 SCT085 17/11 Q1016 NOSIG

2018/07/11 06:27
TAF EDDM 110500Z 1106/1212 26006KT 9999 SCT025
TEMPO 1110/1116 29015G25KT

Wir freuen uns auf VFR und IFR Verkehr !
Keine Angst , bisher hat der Chef noch keine Blitzer aufgestellt ( s. Anhang )

Bis gleich,

Eure München Crew

Geändert von Steffen Butenschön (2018-08-29 um 15:03 Uhr)
Steffen Butenschön ist offline   Mit Zitat antworten
Alt 2018-07-18, 15:32   #457 (permalink)
 
Benutzerbild von Steffen Butenschön
 
Registriert seit: 2013-01-03
Ort: bei Berlin
Beiträge: 173
Danke erteilt: 414
457 Danksagungen in 130 Beiträgen erhalten
Standard

Sommer - Sonne - München Mittwoch !

Servus alle miteinander !
In wenigen Stunden geht es wieder rund. In und um München
mit folgendem spektakulären Wetter:

2018/07/18 12:27
TAF EDDM 181100Z 1812/1918 30010KT CAVOK
BECMG 1816/1818 34004KT

2018/07/18 13:20
EDDM 181320Z 32006KT 290V350 CAVOK 26/12 Q1017 NOSIG

Also auch wieder eine gute Gelegenheit die E-Klasse rauszuholen.
Wer ggf. Höhenangst hat und lieber auf die Instrumente schaut findet heute
ATC Begleitung im In- und Ausland an vielen Top Destinationen:
EDDW EDDG EDDF LOWI LOWW LFPG EPWA EGGD

Bis gleich !
Eure München Crew
Steffen Butenschön ist offline   Mit Zitat antworten
Alt 2018-08-01, 08:55   #458 (permalink)
 
Benutzerbild von Steffen Butenschön
 
Registriert seit: 2013-01-03
Ort: bei Berlin
Beiträge: 173
Danke erteilt: 414
457 Danksagungen in 130 Beiträgen erhalten
Standard

Der Sommer hat uns weiterhin im Schwitzkasten

Bitte beachtet das es Rechner mit Wasserkühlung gibt, es aber einiger Modifikationen
bedarf bevor Euer PC mit ins Füße kühlende Planschbecken unterm Schreibtisch kann

Unbeeindruckt ob der hohen Temperaturen laden wir euch natürlich auch heute wieder
nach München ein !
Denn Mittwoch´s ist München Mittwoch !

Die Stationen sind gebucht und das Wetter bestellt:

2018/08/01 06:20
EDDM 010620Z VRB01KT CAVOK 21/17 Q1019 NOSIG

2018/08/01 06:27
TAF EDDM 010500Z 0106/0212 VRB03KT CAVOK
BECMG 0109/0111 06005KT
TEMPO 0112/0117 06010KT
BECMG 0117/0120 VRB03KT PROB30
TEMPO 0117/0121 TSRA BKN060CB
BECMG 0208/0210 08007KT

Das "Chaos" vom Wochenende ist beseitigt und wir werden dafür sorgen das auch wirklich
jeder am T2 (Lageplan) gründlichst kontrolliert wird - versprochen !
Bei einem Event wie diesem darf es natürlich nicht an Ehrengästen fehlen .
So freuen wir uns heute ganz besonders auf die Düsseldorfer und Frankfurter ATC-Kollegen,
die zu ihrem heutigen Gruppenflug von München abfliegen.

Wie immer ist natürlich jeder herzlich eingeladen dabei zu sein!

Wir freuen uns auf Euch!

Eure München Crew
Steffen Butenschön ist offline   Mit Zitat antworten
Alt 2018-08-08, 08:54   #459 (permalink)
 
Benutzerbild von Steffen Butenschön
 
Registriert seit: 2013-01-03
Ort: bei Berlin
Beiträge: 173
Danke erteilt: 414
457 Danksagungen in 130 Beiträgen erhalten
Standard

Heißa - München Mittwoch !

"Und aus dem Thermometer sprach eine Stimme zu uns : Lächelt und seid froh -
es könnte schlimmer kommen! Wir lächelten und waren froh und es kam schlimmer ! "

Die Temperaturen werden heute wieder rekordverdächtig aber Änderung ist ja in Sicht.
Mal sehen wie heftig die ausfällt

2018/08/08 06:20
EDDM 080620Z 25004KT 210V290 CAVOK 21/17 Q1015 NOSIG

2018/08/08 06:27
TAF EDDM 080500Z 0806/0912 25010KT CAVOK
TEMPO 0806/0808 16003KT PROB30
TEMPO 0807/0809 27015G30KT TSRA SCT060CB PROB30
TEMPO 0816/0820 27015G30KT TSRA SCT070CB
BECMG 0818/0820 VRB03KT
BECMG 0906/0908 09005KT

Wer schon früher am Flughafen ist besucht die Bike & Action 2018 und erlebt spektakuläre
Mountainbike-Action direkt am Airport. Parken ist übrigens für 5 Stunden im P20 kostenlos möglich !

Wir freuen uns auf einen spannenden Abend mit Euch auf den Frequenzen in und um München!

Bis später !

Eure München Crew
Steffen Butenschön ist offline   Mit Zitat antworten
Alt 2018-08-15, 12:39   #460 (permalink)
 
Benutzerbild von Steffen Butenschön
 
Registriert seit: 2013-01-03
Ort: bei Berlin
Beiträge: 173
Danke erteilt: 414
457 Danksagungen in 130 Beiträgen erhalten
Standard

Mittwochs ist München Mittwoch !

Die Temperaturen sind endlich wieder erträglich und laden zum gepflegten Flusinieren ein.
Also hier der wöchentliche Aufruf an alle Simulanten sich in München einzufinden.
Die Stationen sind gebucht und die Controller hoch motiviert!
Das Wetter , wie schon erwähnt, zeigt sich ganz entspannt:

2018/08/15 10:20
EDDM 151020Z 30006KT 270V360 9999 SCT036 23/14 Q1021 NOSIG

2018/08/15 06:27
TAF EDDM 150500Z 1506/1612 28005KT CAVOK
BECMG 1516/1518 VRB02KT
BECMG 1609/1611 09005KT

Wer die Familie schon früher abgeben möchte, hat die Gelegenheit dies im Schowpalast München um
1400 zu tun. Hier wird die Equila präsentiert:"Eine abenteuerliche Reise in eine magische Welt: Münchens
neues Showerlebnis verzaubert die Besucher mit Reitkunst, Luftakrobatik, faszinierender Musik und tollen
Tanzchoreographien".

Apropos Luftakrobatik, die Einladung für heute gilt wie immer sowohl VFR als auch IFR Fliegern!
Wer nicht um München herum bleibt ( der trainierende Michael auf dem Approach freut sich natürlich
besonders über einen vollen Luftraum ), dem bieten sich mannigfaltige Möglichkeiten.
Im Norden gehen Bremen und Berlin online und Team Austria ist u.a. auch wieder mit von der Partie.

Bis gleich!

Eure München Crew
Steffen Butenschön ist offline   Mit Zitat antworten
Antwort

  VATSIM Germany Forum > Community > Events


Themen-Optionen
Ansicht

Forumregeln
Es ist dir nicht erlaubt, neue Themen zu verfassen.
Es ist dir nicht erlaubt, auf Beiträge zu antworten.
Es ist dir nicht erlaubt, Anhänge hochzuladen.
Es ist dir nicht erlaubt, deine Beiträge zu bearbeiten.

BB-Code ist an.
Smileys sind an.
[IMG] Code ist an.
HTML-Code ist aus.
Trackbacks are an
Pingbacks are an
Refbacks are an



Alle Zeitangaben in WEZ +2. Es ist jetzt 13:04 Uhr.


Powered by vBulletin® Version 3.8.4 (Deutsch)
Copyright ©2000 - 2019, Jelsoft Enterprises Ltd.
Template-Modifikationen durch TMS
© 2006 - 2018 vatsim-germany.org